Time;durP1;ratioP1;P1;durP2;ratioP2;P2;SDS_P1;SDS_P2;PMS_P1;PMS_P2;Temp;Humidity;BMP_temperature;BMP_pressure;BME280_temperature;BME280_humidity;BME280_pressure;Samples;Min_cycle;Max_cycle;Signal;HPM_P1;HPM_P2
2022/03/11 00:00:17;;;;;;;5.27;4.47;;;;;;;;;;5049055;28;20487;-79
2022/03/11 00:02:45;;;;;;;5.10;4.20;;;;;;;;;;5048288;28;21127;-80
2022/03/11 00:05:13;;;;;;;9.87;5.97;;;;;;;;;;5047474;28;20980;-80
2022/03/11 00:07:40;;;;;;;4.73;4.33;;;;;;;;;;5048899;28;20499;-80
2022/03/11 00:10:08;;;;;;;5.40;4.90;;;;;;;;;;5048974;28;20444;-80
2022/03/11 00:12:37;;;;;;;4.93;4.53;;;;;;;;;;5049354;28;20527;-80
2022/03/11 00:15:06;;;;;;;5.43;4.43;;;;;;;;;;5049127;28;20489;-80
2022/03/11 00:17:34;;;;;;;5.27;4.37;;;;;;;;;;5048562;28;20851;-80
2022/03/11 00:20:03;;;;;;;5.90;5.03;;;;;;;;;;5049016;28;20527;-80
2022/03/11 00:22:31;;;;;;;5.10;3.90;;;;;;;;;;5049005;28;20476;-80
2022/03/11 00:24:58;;;;;;;6.43;4.40;;;;;;;;;;5047795;28;21026;-80
2022/03/11 00:27:25;;;;;;;5.30;4.27;;;;;;;;;;5048856;28;20440;-80
2022/03/11 00:29:52;;;;;;;4.87;4.13;;;;;;;;;;5049014;28;20523;-80
2022/03/11 00:32:20;;;;;;;7.00;4.63;;;;;;;;;;5049113;28;20471;-80
2022/03/11 00:34:47;;;;;;;4.20;3.80;;;;;;;;;;5048886;28;20541;-80
2022/03/11 00:37:16;;;;;;;7.93;4.57;;;;;;;;;;5048538;28;20539;-80
2022/03/11 00:39:43;;;;;;;5.97;4.23;;;;;;;;;;5048800;28;20903;-80
2022/03/11 00:42:10;;;;;;;4.80;4.20;;;;;;;;;;5048654;28;20476;-80
2022/03/11 00:44:39;;;;;;;8.37;4.77;;;;;;;;;;5049134;28;20468;-80
2022/03/11 00:47:07;;;;;;;5.57;4.53;;;;;;;;;;5048668;28;20432;-79
2022/03/11 00:49:34;;;;;;;5.60;4.33;;;;;;;;;;5048714;28;20539;-80
2022/03/11 00:52:02;;;;;;;4.93;4.10;;;;;;;;;;5048868;28;20444;-80
2022/03/11 00:54:30;;;;;;;5.60;4.47;;;;;;;;;;5048659;28;20706;-80
2022/03/11 00:56:57;;;;;;;5.07;4.10;;;;;;;;;;5048739;28;20531;-79
2022/03/11 00:59:25;;;;;;;4.47;3.87;;;;;;;;;;5048499;28;20481;-80
2022/03/11 01:01:52;;;;;;;4.40;3.63;;;;;;;;;;5048331;28;20543;-80
2022/03/11 01:04:19;;;;;;;4.40;3.67;;;;;;;;;;5048883;28;20504;-80
2022/03/11 01:06:46;;;;;;;4.27;3.73;;;;;;;;;;5048117;28;21196;-80
2022/03/11 01:09:14;;;;;;;3.90;3.60;;;;;;;;;;5048528;28;20535;-80
2022/03/11 01:11:43;;;;;;;6.50;3.83;;;;;;;;;;5048301;28;20471;-80
2022/03/11 01:14:10;;;;;;;5.37;4.63;;;;;;;;;;5048416;28;20523;-79
2022/03/11 01:16:37;;;;;;;4.13;3.73;;;;;;;;;;5047746;28;20571;-79
2022/03/11 01:19:04;;;;;;;4.83;3.83;;;;;;;;;;5048665;28;20460;-80
2022/03/11 01:21:31;;;;;;;5.50;4.80;;;;;;;;;;5048465;28;20536;-80
2022/03/11 01:23:59;;;;;;;5.57;4.13;;;;;;;;;;5048231;28;20472;-80
2022/03/11 01:26:26;;;;;;;6.00;4.33;;;;;;;;;;5047981;28;20544;-80
2022/03/11 01:28:55;;;;;;;4.27;3.87;;;;;;;;;;5048423;28;20523;-80
2022/03/11 01:31:22;;;;;;;4.60;4.07;;;;;;;;;;5048132;28;20531;-80
2022/03/11 01:33:49;;;;;;;5.13;4.23;;;;;;;;;;5048042;28;20531;-80
2022/03/11 01:36:17;;;;;;;6.50;4.07;;;;;;;;;;5050838;28;20539;-81
2022/03/11 01:38:45;;;;;;;4.60;4.07;;;;;;;;;;5051385;28;20983;-80
2022/03/11 01:41:12;;;;;;;4.83;3.93;;;;;;;;;;5051861;28;20932;-80
2022/03/11 01:43:52;;;;;;;5.93;4.27;;;;;;;;;;5051151;28;20535;-80
2022/03/11 01:46:21;;;;;;;4.17;3.77;;;;;;;;;;5051478;28;20547;-79
2022/03/11 01:48:49;;;;;;;4.83;3.73;;;;;;;;;;5051235;28;20539;-80
2022/03/11 01:51:16;;;;;;;5.97;4.27;;;;;;;;;;5051143;28;20858;-80
2022/03/11 01:53:44;;;;;;;6.77;3.83;;;;;;;;;;5051103;28;20488;-80
2022/03/11 01:56:12;;;;;;;6.83;4.83;;;;;;;;;;5051592;28;20519;-80
2022/03/11 01:58:39;;;;;;;8.47;3.37;;;;;;;;;;5051081;28;20535;-80
2022/03/11 02:01:07;;;;;;;5.00;4.07;;;;;;;;;;5051026;28;20535;-79
2022/03/11 02:03:35;;;;;;;3.43;3.13;;;;;;;;;;5051098;28;20445;-79
2022/03/11 02:06:03;;;;;;;6.60;4.07;;;;;;;;;;5051145;28;20488;-80
2022/03/11 02:08:31;;;;;;;4.53;4.00;;;;;;;;;;5050984;28;20480;-80
2022/03/11 02:10:58;;;;;;;3.40;3.10;;;;;;;;;;5050836;28;20531;-80
2022/03/11 02:13:26;;;;;;;4.10;3.70;;;;;;;;;;5050969;28;20443;-80
2022/03/11 02:15:53;;;;;;;5.83;4.73;;;;;;;;;;5050903;28;20519;-80
2022/03/11 02:18:20;;;;;;;6.03;5.10;;;;;;;;;;5050785;28;20504;-80
2022/03/11 02:20:50;;;;;;;5.57;4.03;;;;;;;;;;5050684;28;20444;-80
2022/03/11 02:23:18;;;;;;;4.10;3.47;;;;;;;;;;5051077;28;20444;-80
2022/03/11 02:25:47;;;;;;;3.90;3.50;;;;;;;;;;5051133;28;20539;-80
2022/03/11 02:28:14;;;;;;;5.10;3.90;;;;;;;;;;5050999;28;20527;-80
2022/03/11 02:30:42;;;;;;;5.27;4.33;;;;;;;;;;5050793;28;20531;-79
2022/03/11 02:33:09;;;;;;;3.70;3.27;;;;;;;;;;5050350;28;20991;-80
2022/03/11 02:35:36;;;;;;;4.00;3.37;;;;;;;;;;5050650;28;20516;-79
2022/03/11 02:38:03;;;;;;;4.07;3.47;;;;;;;;;;5050548;28;20539;-80
2022/03/11 02:40:32;;;;;;;3.80;3.50;;;;;;;;;;5050659;28;20535;-80
2022/03/11 02:43:01;;;;;;;4.30;3.47;;;;;;;;;;5050203;28;20449;-80
2022/03/11 02:45:29;;;;;;;4.47;3.43;;;;;;;;;;5050896;28;20543;-80
2022/03/11 02:47:56;;;;;;;4.87;4.00;;;;;;;;;;5049411;28;20533;-80
2022/03/11 02:50:23;;;;;;;5.13;4.23;;;;;;;;;;5050822;28;20477;-80
2022/03/11 02:52:50;;;;;;;4.90;3.77;;;;;;;;;;5050196;28;20475;-80
2022/03/11 02:55:18;;;;;;;5.30;4.23;;;;;;;;;;5050157;28;20917;-80
2022/03/11 02:57:45;;;;;;;5.93;3.77;;;;;;;;;;5050211;28;20468;-80
2022/03/11 03:00:15;;;;;;;6.20;4.27;;;;;;;;;;5050314;28;20537;-80
2022/03/11 03:02:42;;;;;;;4.07;3.57;;;;;;;;;;5050128;28;20536;-80
2022/03/11 03:05:10;;;;;;;4.23;3.73;;;;;;;;;;5050277;28;20531;-80
2022/03/11 03:07:37;;;;;;;5.00;3.97;;;;;;;;;;5050058;28;20523;-80
2022/03/11 03:10:05;;;;;;;4.47;4.03;;;;;;;;;;5050191;28;20451;-80
2022/03/11 03:12:32;;;;;;;6.27;4.40;;;;;;;;;;5049855;28;20577;-80
2022/03/11 03:15:00;;;;;;;4.27;3.70;;;;;;;;;;5049903;28;20575;-80
2022/03/11 03:17:28;;;;;;;4.77;4.27;;;;;;;;;;5049777;28;20865;-80
2022/03/11 03:19:56;;;;;;;6.03;4.70;;;;;;;;;;5049939;28;20547;-80
2022/03/11 03:22:24;;;;;;;6.00;3.73;;;;;;;;;;5049824;28;20535;-80
2022/03/11 03:24:51;;;;;;;4.53;3.73;;;;;;;;;;5049647;28;20543;-79
2022/03/11 03:27:18;;;;;;;5.13;4.03;;;;;;;;;;5049771;28;20440;-80
2022/03/11 03:29:46;;;;;;;10.20;4.40;;;;;;;;;;5049868;28;20480;-80
2022/03/11 03:32:13;;;;;;;3.93;3.63;;;;;;;;;;5049672;28;20547;-80
2022/03/11 03:34:42;;;;;;;5.80;3.47;;;;;;;;;;5049556;28;20559;-80
2022/03/11 03:37:12;;;;;;;4.70;4.27;;;;;;;;;;5049610;28;20480;-80
2022/03/11 03:39:40;;;;;;;5.27;3.90;;;;;;;;;;5050116;28;20832;-80
2022/03/11 03:42:09;;;;;;;7.93;4.90;;;;;;;;;;5049533;28;20543;-80
2022/03/11 03:44:36;;;;;;;4.73;4.20;;;;;;;;;;5049799;28;20934;-80
2022/03/11 03:47:04;;;;;;;4.73;3.93;;;;;;;;;;5049338;28;20488;-80
2022/03/11 03:49:32;;;;;;;5.80;4.33;;;;;;;;;;5049566;28;20830;-79
2022/03/11 03:52:01;;;;;;;5.13;4.43;;;;;;;;;;5049079;28;20793;-80
2022/03/11 03:54:28;;;;;;;5.73;3.83;;;;;;;;;;5049412;28;20542;-80
2022/03/11 03:56:55;;;;;;;3.87;3.40;;;;;;;;;;5049591;28;20527;-80
2022/03/11 03:59:24;;;;;;;6.00;3.47;;;;;;;;;;5049340;28;20532;-80
2022/03/11 04:01:52;;;;;;;6.07;3.80;;;;;;;;;;5049022;28;20452;-80
2022/03/11 04:04:19;;;;;;;5.10;3.67;;;;;;;;;;5049712;28;20449;-80
2022/03/11 04:06:46;;;;;;;5.17;3.90;;;;;;;;;;5049206;28;21014;-80
2022/03/11 04:09:15;;;;;;;4.83;4.13;;;;;;;;;;5049324;28;20437;-80
2022/03/11 04:11:42;;;;;;;3.60;3.30;;;;;;;;;;5048999;28;20531;-79
2022/03/11 04:14:09;;;;;;;5.50;3.80;;;;;;;;;;5049003;28;20439;-80
2022/03/11 04:16:37;;;;;;;5.13;3.50;;;;;;;;;;5048784;28;20578;-80
2022/03/11 04:19:05;;;;;;;6.63;4.80;;;;;;;;;;5049476;28;20837;-80
2022/03/11 04:21:32;;;;;;;4.40;3.40;;;;;;;;;;5048786;28;20535;-80
2022/03/11 04:23:59;;;;;;;3.67;2.90;;;;;;;;;;5049369;28;20535;-80
2022/03/11 04:26:28;;;;;;;3.30;2.90;;;;;;;;;;5048038;28;20459;-80
2022/03/11 04:28:55;;;;;;;4.63;3.50;;;;;;;;;;5048248;28;20551;-80
2022/03/11 04:31:23;;;;;;;3.93;3.50;;;;;;;;;;5036095;28;21001;-80
2022/03/11 04:33:50;;;;;;;4.50;4.00;;;;;;;;;;5027996;28;20453;-80
2022/03/11 04:36:17;;;;;;;6.27;4.30;;;;;;;;;;5027768;28;20555;-80
2022/03/11 04:38:44;;;;;;;7.57;6.10;;;;;;;;;;5027946;28;20448;-80
2022/03/11 04:41:11;;;;;;;4.97;4.30;;;;;;;;;;5027788;28;20481;-80
2022/03/11 04:43:42;;;;;;;6.60;3.97;;;;;;;;;;5027793;28;20855;-80
2022/03/11 04:46:09;;;;;;;4.97;3.60;;;;;;;;;;5027762;28;20474;-80
2022/03/11 04:48:39;;;;;;;7.03;4.57;;;;;;;;;;5028245;28;20441;-79
2022/03/11 04:51:06;;;;;;;5.33;4.20;;;;;;;;;;5027969;28;20445;-80
2022/03/11 04:53:33;;;;;;;6.50;5.17;;;;;;;;;;5027673;28;20449;-79
2022/03/11 04:56:01;;;;;;;3.73;3.40;;;;;;;;;;5027905;28;20560;-79
2022/03/11 04:58:28;;;;;;;5.83;5.03;;;;;;;;;;5027264;28;20445;-79
2022/03/11 05:00:57;;;;;;;7.03;5.40;;;;;;;;;;5027886;28;20445;-80
2022/03/11 05:03:24;;;;;;;6.50;4.27;;;;;;;;;;5027572;28;20444;-79
2022/03/11 05:05:51;;;;;;;9.17;7.23;;;;;;;;;;5027865;28;20994;-79
2022/03/11 05:08:19;;;;;;;6.03;4.50;;;;;;;;;;5027678;28;20472;-80
2022/03/11 05:10:46;;;;;;;4.77;3.97;;;;;;;;;;5029152;28;20536;-79
2022/03/11 05:13:13;;;;;;;6.67;4.60;;;;;;;;;;5030993;28;20452;-79
2022/03/11 05:15:40;;;;;;;5.13;4.43;;;;;;;;;;5031689;28;20876;-80
2022/03/11 05:18:11;;;;;;;5.73;5.10;;;;;;;;;;5030171;28;20481;-79
2022/03/11 05:20:38;;;;;;;5.17;4.70;;;;;;;;;;5026297;28;20475;-79
2022/03/11 05:23:05;;;;;;;5.43;4.73;;;;;;;;;;5030245;28;20449;-79
2022/03/11 05:25:32;;;;;;;7.37;5.47;;;;;;;;;;5031216;28;20441;-79
2022/03/11 05:27:59;;;;;;;5.10;4.60;;;;;;;;;;5030975;28;20449;-79
2022/03/11 05:30:26;;;;;;;6.53;4.83;;;;;;;;;;5031616;28;20453;-79
2022/03/11 05:32:54;;;;;;;5.30;4.13;;;;;;;;;;5031676;28;20444;-79
2022/03/11 05:35:23;;;;;;;6.37;4.50;;;;;;;;;;5031674;28;20488;-80
2022/03/11 05:37:50;;;;;;;6.67;4.80;;;;;;;;;;5031407;28;20484;-79
2022/03/11 05:40:17;;;;;;;5.40;4.50;;;;;;;;;;5031737;28;20441;-79
2022/03/11 05:42:44;;;;;;;6.33;3.63;;;;;;;;;;5031462;28;20506;-80
2022/03/11 05:45:12;;;;;;;6.30;4.63;;;;;;;;;;5031938;28;20441;-79
2022/03/11 05:47:39;;;;;;;4.70;4.13;;;;;;;;;;5031377;28;20448;-79
2022/03/11 05:50:07;;;;;;;6.27;5.03;;;;;;;;;;5031635;28;20460;-79
2022/03/11 05:52:38;;;;;;;6.20;4.27;;;;;;;;;;5031439;28;20456;-80
2022/03/11 05:55:05;;;;;;;6.77;4.70;;;;;;;;;;5031940;28;20490;-79
2022/03/11 05:57:33;;;;;;;6.30;5.00;;;;;;;;;;5031186;28;20453;-79
2022/03/11 06:00:00;;;;;;;9.03;5.73;;;;;;;;;;5031206;28;20988;-79
2022/03/11 06:02:27;;;;;;;5.27;4.57;;;;;;;;;;5031383;28;20817;-79
2022/03/11 06:04:54;;;;;;;5.07;4.10;;;;;;;;;;5031657;28;20937;-79
2022/03/11 06:07:21;;;;;;;4.50;4.10;;;;;;;;;;5031404;28;20456;-79
2022/03/11 06:09:50;;;;;;;5.90;4.40;;;;;;;;;;5031086;28;20441;-80
2022/03/11 06:12:17;;;;;;;6.83;5.30;;;;;;;;;;5031092;28;20449;-80
2022/03/11 06:14:44;;;;;;;4.10;3.50;;;;;;;;;;5031197;28;20445;-79
2022/03/11 06:17:11;;;;;;;5.47;3.97;;;;;;;;;;5030681;27;20485;-80
2022/03/11 06:19:38;;;;;;;5.23;3.70;;;;;;;;;;5031130;28;20957;-79
2022/03/11 06:22:06;;;;;;;6.60;5.30;;;;;;;;;;5029667;28;20450;-79
2022/03/11 06:24:33;;;;;;;5.77;5.00;;;;;;;;;;5031345;28;20825;-80
2022/03/11 06:27:01;;;;;;;13.93;9.27;;;;;;;;;;5030787;28;20517;-79
2022/03/11 06:29:29;;;;;;;24.80;14.63;;;;;;;;;;5030702;28;20516;-80
2022/03/11 06:31:56;;;;;;;16.83;10.57;;;;;;;;;;5030637;28;20568;-80
2022/03/11 06:34:24;;;;;;;28.23;17.03;;;;;;;;;;5031176;28;20487;-81
2022/03/11 06:36:51;;;;;;;9.13;7.23;;;;;;;;;;5030550;28;20484;-80
2022/03/11 06:39:18;;;;;;;8.23;5.20;;;;;;;;;;5030762;28;20449;-81
2022/03/11 06:41:45;;;;;;;6.87;4.50;;;;;;;;;;5030649;28;20841;-80
2022/03/11 06:44:16;;;;;;;5.90;4.90;;;;;;;;;;5031011;28;20441;-81
2022/03/11 06:46:43;;;;;;;7.73;4.93;;;;;;;;;;5029520;28;20468;-80
2022/03/11 06:49:11;;;;;;;5.90;4.23;;;;;;;;;;5034604;28;20453;-81
2022/03/11 06:51:38;;;;;;;6.10;4.13;;;;;;;;;;5030118;28;20452;-81
2022/03/11 06:54:07;;;;;;;6.20;4.37;;;;;;;;;;5030794;28;20541;-81
2022/03/11 06:56:35;;;;;;;6.33;4.63;;;;;;;;;;5030288;28;20473;-81
2022/03/11 06:59:02;;;;;;;5.40;4.53;;;;;;;;;;5030432;28;20783;-81
2022/03/11 07:01:31;;;;;;;9.00;5.07;;;;;;;;;;5030381;28;20453;-81
2022/03/11 07:03:58;;;;;;;4.97;4.23;;;;;;;;;;5030371;28;20452;-81
2022/03/11 07:06:26;;;;;;;4.87;3.93;;;;;;;;;;5030588;28;20799;-81
2022/03/11 07:08:53;;;;;;;5.83;4.20;;;;;;;;;;5030070;28;20441;-81
2022/03/11 07:11:20;;;;;;;5.17;4.40;;;;;;;;;;5030289;28;20448;-81
2022/03/11 07:13:48;;;;;;;5.27;3.90;;;;;;;;;;5030132;28;20445;-81
2022/03/11 07:16:15;;;;;;;4.77;4.30;;;;;;;;;;5029798;28;20477;-81
2022/03/11 07:18:43;;;;;;;8.13;5.70;;;;;;;;;;5030071;28;20442;-81
2022/03/11 07:21:10;;;;;;;6.77;4.10;;;;;;;;;;5030168;28;20445;-81
2022/03/11 07:23:38;;;;;;;8.33;5.67;;;;;;;;;;5029919;28;20481;-82
2022/03/11 07:26:05;;;;;;;16.50;9.90;;;;;;;;;;5030434;28;20448;-82
2022/03/11 07:28:32;;;;;;;11.70;7.50;;;;;;;;;;5028467;28;20441;-82
2022/03/11 07:31:01;;;;;;;18.47;10.37;;;;;;;;;;5028493;28;20442;-82
2022/03/11 07:33:28;;;;;;;25.10;12.97;;;;;;;;;;5029473;28;20503;-80
2022/03/11 07:35:56;;;;;;;58.33;28.67;;;;;;;;;;5029874;28;20485;-82
2022/03/11 07:38:30;;;;;;;58.70;29.07;;;;;;;;;;5029677;28;20537;-80
2022/03/11 07:40:59;;;;;;;8.90;7.50;;;;;;;;;;5030129;28;20879;-80
2022/03/11 07:43:26;;;;;;;7.17;5.37;;;;;;;;;;5030032;28;20867;-80
2022/03/11 07:45:53;;;;;;;6.77;4.97;;;;;;;;;;5030074;28;20449;-81
2022/03/11 07:48:21;;;;;;;8.30;6.40;;;;;;;;;;5029312;28;20965;-80
2022/03/11 07:50:48;;;;;;;5.33;4.83;;;;;;;;;;5030064;28;20437;-81
2022/03/11 07:53:16;;;;;;;7.40;4.90;;;;;;;;;;5029523;28;20442;-81
2022/03/11 07:55:44;;;;;;;6.73;5.80;;;;;;;;;;5029595;28;20453;-81
2022/03/11 07:58:11;;;;;;;7.67;5.77;;;;;;;;;;5029132;28;20449;-81
2022/03/11 08:00:41;;;;;;;7.23;5.20;;;;;;;;;;5029572;28;20449;-81
2022/03/11 08:03:08;;;;;;;5.50;4.07;;;;;;;;;;5029439;28;20445;-81
2022/03/11 08:05:36;;;;;;;7.43;5.73;;;;;;;;;;5029771;28;20433;-81
2022/03/11 08:08:03;;;;;;;7.60;4.33;;;;;;;;;;5029275;28;20454;-81
2022/03/11 08:10:33;;;;;;;5.30;4.10;;;;;;;;;;5029494;28;20445;-81
2022/03/11 08:13:00;;;;;;;6.53;3.67;;;;;;;;;;5028873;28;20484;-81
2022/03/11 08:15:28;;;;;;;12.23;4.20;;;;;;;;;;5029260;28;20456;-81
2022/03/11 08:17:55;;;;;;;6.53;4.10;;;;;;;;;;5028569;28;20500;-81
2022/03/11 08:20:22;;;;;;;5.87;3.93;;;;;;;;;;5029612;28;20852;-81
2022/03/11 08:22:51;;;;;;;4.33;3.87;;;;;;;;;;5029013;28;20957;-81
2022/03/11 08:25:20;;;;;;;6.27;4.50;;;;;;;;;;5029237;28;20453;-81
2022/03/11 08:27:49;;;;;;;4.90;4.40;;;;;;;;;;5028668;28;20437;-81
2022/03/11 08:30:18;;;;;;;5.70;4.10;;;;;;;;;;5029227;28;20828;-81
2022/03/11 08:32:45;;;;;;;7.23;6.40;;;;;;;;;;5029193;28;20806;-81
2022/03/11 08:35:12;;;;;;;13.33;7.87;;;;;;;;;;5029023;28;20199;-80
2022/03/11 08:37:40;;;;;;;5.50;4.23;;;;;;;;;;5028925;28;20481;-81
2022/03/11 08:40:08;;;;;;;3.77;2.93;;;;;;;;;;5029365;28;20896;-81
2022/03/11 08:42:36;;;;;;;7.37;5.47;;;;;;;;;;5028857;28;20199;-81
2022/03/11 08:45:06;;;;;;;7.00;4.43;;;;;;;;;;5027927;28;20221;-81
2022/03/11 08:47:33;;;;;;;4.83;4.33;;;;;;;;;;5028817;28;20290;-81
2022/03/11 08:50:02;;;;;;;6.00;5.10;;;;;;;;;;5028951;28;20281;-81
2022/03/11 08:52:30;;;;;;;5.60;4.73;;;;;;;;;;5029065;28;20206;-81
2022/03/11 08:54:57;;;;;;;7.70;5.10;;;;;;;;;;5028775;28;20187;-81
2022/03/11 08:57:24;;;;;;;7.50;5.50;;;;;;;;;;5028352;28;20319;-81
2022/03/11 08:59:54;;;;;;;6.40;4.60;;;;;;;;;;5029069;28;20199;-81
2022/03/11 09:02:23;;;;;;;4.63;3.73;;;;;;;;;;5028584;28;20210;-81
2022/03/11 09:04:51;;;;;;;4.70;4.20;;;;;;;;;;5028913;28;20247;-81
2022/03/11 09:07:18;;;;;;;4.30;3.87;;;;;;;;;;5028620;28;20198;-81
2022/03/11 09:09:45;;;;;;;5.50;5.00;;;;;;;;;;5028684;28;20199;-81
2022/03/11 09:12:12;;;;;;;5.77;4.10;;;;;;;;;;5028502;28;20238;-81
2022/03/11 09:14:39;;;;;;;4.93;4.00;;;;;;;;;;5028698;28;20198;-81
2022/03/11 09:17:07;;;;;;;4.00;3.67;;;;;;;;;;5028242;28;20245;-81
2022/03/11 09:19:36;;;;;;;4.30;3.70;;;;;;;;;;5028563;28;20210;-81
2022/03/11 09:22:03;;;;;;;5.13;3.97;;;;;;;;;;5028380;28;20671;-81
2022/03/11 09:24:30;;;;;;;5.60;4.23;;;;;;;;;;5028238;28;20195;-81
2022/03/11 09:26:58;;;;;;;5.03;4.53;;;;;;;;;;5028413;28;20199;-80
2022/03/11 09:29:28;;;;;;;5.37;4.20;;;;;;;;;;5028450;28;20241;-80
2022/03/11 09:31:56;;;;;;;4.97;3.80;;;;;;;;;;5028291;28;20191;-81
2022/03/11 09:34:24;;;;;;;6.83;4.17;;;;;;;;;;5028477;28;20263;-81
2022/03/11 09:36:53;;;;;;;4.40;4.00;;;;;;;;;;5028071;28;20226;-81
2022/03/11 09:39:20;;;;;;;5.60;4.53;;;;;;;;;;5028649;28;20225;-81
2022/03/11 09:41:48;;;;;;;5.37;4.73;;;;;;;;;;5028104;28;20573;-81
2022/03/11 09:44:15;;;;;;;5.60;4.83;;;;;;;;;;5027960;28;20198;-81
2022/03/11 09:46:42;;;;;;;5.40;4.30;;;;;;;;;;5028014;28;20230;-81
2022/03/11 09:49:10;;;;;;;5.17;4.40;;;;;;;;;;5028184;28;20285;-81
2022/03/11 09:51:37;;;;;;;6.73;4.70;;;;;;;;;;5027965;28;20675;-81
2022/03/11 09:54:06;;;;;;;5.17;4.47;;;;;;;;;;5028276;28;20199;-81
2022/03/11 09:56:35;;;;;;;4.17;3.67;;;;;;;;;;5029576;28;20226;-81
2022/03/11 09:59:02;;;;;;;5.53;4.10;;;;;;;;;;5031409;28;20207;-80
2022/03/11 10:01:30;;;;;;;6.03;5.30;;;;;;;;;;5031334;28;20199;-81
2022/03/11 10:03:57;;;;;;;6.40;5.07;;;;;;;;;;5031260;28;20206;-81
2022/03/11 10:06:45;;;;;;;6.20;4.90;;;;;;;;;;5031026;28;20198;-81
2022/03/11 10:09:33;;;;;;;4.83;4.37;;;;;;;;;;5026822;28;20281;-81
2022/03/11 10:12:05;;;;;;;9.00;4.77;;;;;;;;;;5031442;28;20205;-81
2022/03/11 10:14:35;;;;;;;4.40;3.83;;;;;;;;;;5031070;28;20655;-81
2022/03/11 10:17:03;;;;;;;5.10;4.60;;;;;;;;;;5030921;28;20242;-81
2022/03/11 10:19:30;;;;;;;6.80;4.63;;;;;;;;;;5031112;28;20568;-81
2022/03/11 10:21:59;;;;;;;4.83;3.97;;;;;;;;;;5030960;28;20590;-81
2022/03/11 10:24:27;;;;;;;5.33;4.23;;;;;;;;;;5031072;28;20256;-81
2022/03/11 10:26:58;;;;;;;4.10;3.70;;;;;;;;;;5030791;28;20199;-81
2022/03/11 10:29:27;;;;;;;4.40;4.00;;;;;;;;;;5031083;28;20191;-81
2022/03/11 10:31:58;;;;;;;6.60;3.67;;;;;;;;;;5030448;28;20211;-80
2022/03/11 10:34:26;;;;;;;4.33;3.80;;;;;;;;;;5031019;28;20187;-81
2022/03/11 10:36:55;;;;;;;3.83;3.47;;;;;;;;;;5030594;28;20226;-80
2022/03/11 10:39:26;;;;;;;4.33;3.93;;;;;;;;;;5030923;28;20582;-80
2022/03/11 10:41:55;;;;;;;4.57;4.13;;;;;;;;;;5030459;28;20423;-81
2022/03/11 10:44:25;;;;;;;4.03;3.63;;;;;;;;;;5030767;28;20194;-81
2022/03/11 10:46:53;;;;;;;5.37;4.47;;;;;;;;;;5030592;28;20187;-81
2022/03/11 10:49:33;;;;;;;5.10;4.23;;;;;;;;;;5031067;28;20281;-80
2022/03/11 10:52:01;;;;;;;6.13;4.83;;;;;;;;;;5030585;28;20566;-80
2022/03/11 10:54:29;;;;;;;9.77;6.87;;;;;;;;;;5030633;28;20206;-81
2022/03/11 10:57:10;;;;;;;6.40;5.43;;;;;;;;;;5030577;28;20249;-81
2022/03/11 10:59:38;;;;;;;8.10;5.27;;;;;;;;;;5030354;28;20600;-80
2022/03/11 11:02:05;;;;;;;5.00;4.50;;;;;;;;;;5030282;28;20209;-81
2022/03/11 11:04:33;;;;;;;7.10;4.97;;;;;;;;;;5030799;28;20198;-81
2022/03/11 11:07:00;;;;;;;7.77;4.27;;;;;;;;;;5029916;28;20563;-81
2022/03/11 11:09:28;;;;;;;5.87;4.60;;;;;;;;;;5030161;28;20199;-81
2022/03/11 11:11:57;;;;;;;5.97;5.33;;;;;;;;;;5030172;28;20234;-81
2022/03/11 11:14:24;;;;;;;5.70;5.17;;;;;;;;;;5030677;28;20591;-81
2022/03/11 11:16:52;;;;;;;5.13;4.27;;;;;;;;;;5029794;28;20235;-80
2022/03/11 11:19:21;;;;;;;5.50;4.43;;;;;;;;;;5030597;28;20199;-81
2022/03/11 11:21:49;;;;;;;5.03;4.53;;;;;;;;;;5030011;28;20293;-81
2022/03/11 11:24:18;;;;;;;3.87;3.37;;;;;;;;;;5029996;28;20207;-81
2022/03/11 11:26:47;;;;;;;4.23;3.83;;;;;;;;;;5029913;28;20302;-81
2022/03/11 11:29:16;;;;;;;5.17;4.50;;;;;;;;;;5030093;28;20199;-81
2022/03/11 11:31:44;;;;;;;6.63;4.57;;;;;;;;;;5029805;28;20203;-81
2022/03/11 11:34:27;;;;;;;5.20;4.70;;;;;;;;;;5030075;28;20549;-81
2022/03/11 11:36:55;;;;;;;8.10;5.87;;;;;;;;;;5030038;28;20183;-80
2022/03/11 11:39:25;;;;;;;5.97;4.57;;;;;;;;;;5029879;28;20201;-81
2022/03/11 11:41:54;;;;;;;6.43;4.43;;;;;;;;;;5030071;28;20248;-80
2022/03/11 11:44:32;;;;;;;4.57;4.17;;;;;;;;;;5029917;28;20561;-81
2022/03/11 11:47:11;;;;;;;6.00;4.03;;;;;;;;;;5029842;28;20187;-81
2022/03/11 11:49:43;;;;;;;4.47;4.07;;;;;;;;;;5030045;27;20648;-81
2022/03/11 11:52:12;;;;;;;5.37;4.60;;;;;;;;;;5029317;28;20206;-80
2022/03/11 11:54:42;;;;;;;6.70;5.27;;;;;;;;;;5029714;28;20278;-81
2022/03/11 11:57:16;;;;;;;5.63;5.13;;;;;;;;;;5029532;28;20242;-81
2022/03/11 11:59:46;;;;;;;6.90;4.47;;;;;;;;;;5029690;28;20187;-81
2022/03/11 12:02:32;;;;;;;5.83;5.23;;;;;;;;;;5029271;28;20199;-81
2022/03/11 12:05:00;;;;;;;4.47;4.07;;;;;;;;;;5029501;28;20202;-81
2022/03/11 12:07:49;;;;;;;4.40;4.00;;;;;;;;;;5029402;28;20580;-81
2022/03/11 12:10:26;;;;;;;6.53;5.13;;;;;;;;;;5024870;28;20203;-81
2022/03/11 12:12:59;;;;;;;3.77;3.37;;;;;;;;;;5029584;28;20187;-81
2022/03/11 12:15:32;;;;;;;4.33;3.70;;;;;;;;;;5029933;28;20191;-80
2022/03/11 12:18:01;;;;;;;10.60;7.70;;;;;;;;;;5029048;28;20779;-81
2022/03/11 12:20:32;;;;;;;5.70;4.87;;;;;;;;;;5029094;28;20206;-81
2022/03/11 12:23:00;;;;;;;4.43;3.77;;;;;;;;;;5029132;28;20183;-81
2022/03/11 12:25:29;;;;;;;8.50;5.67;;;;;;;;;;5029281;28;20214;-81
2022/03/11 12:28:04;;;;;;;4.63;3.50;;;;;;;;;;5029014;28;20210;-81
2022/03/11 12:30:34;;;;;;;4.57;4.13;;;;;;;;;;5029285;28;20191;-81
2022/03/11 12:33:03;;;;;;;4.20;3.80;;;;;;;;;;5028717;28;20199;-81
2022/03/11 12:35:30;;;;;;;4.20;3.87;;;;;;;;;;5029106;28;20203;-81
2022/03/11 12:37:58;;;;;;;5.17;4.20;;;;;;;;;;5028856;28;20718;-81
2022/03/11 12:40:26;;;;;;;6.20;4.23;;;;;;;;;;5028804;28;20202;-80
2022/03/11 12:43:00;;;;;;;4.07;3.10;;;;;;;;;;5028797;28;20203;-81
2022/03/11 12:45:35;;;;;;;4.47;3.70;;;;;;;;;;5029035;28;20194;-81
2022/03/11 12:48:03;;;;;;;4.43;4.00;;;;;;;;;;5028835;28;20179;-81
2022/03/11 12:50:31;;;;;;;4.50;3.83;;;;;;;;;;5028954;28;20206;-81
2022/03/11 12:52:59;;;;;;;5.77;3.27;;;;;;;;;;5028488;28;20206;-81
2022/03/11 12:55:30;;;;;;;6.60;4.60;;;;;;;;;;5029139;28;20582;-81
2022/03/11 12:57:59;;;;;;;7.40;5.53;;;;;;;;;;5028613;28;20253;-81
2022/03/11 13:00:29;;;;;;;4.13;3.73;;;;;;;;;;5028859;28;20218;-81
2022/03/11 13:02:58;;;;;;;6.30;5.13;;;;;;;;;;5028373;28;20199;-81
2022/03/11 13:05:27;;;;;;;4.87;4.03;;;;;;;;;;5028811;28;20206;-80
2022/03/11 13:07:55;;;;;;;7.40;5.10;;;;;;;;;;5028549;28;20201;-80
2022/03/11 13:10:24;;;;;;;7.17;6.20;;;;;;;;;;5028833;28;20206;-81
2022/03/11 13:12:52;;;;;;;3.57;3.27;;;;;;;;;;5028433;28;20203;-81
2022/03/11 13:15:24;;;;;;;4.83;4.23;;;;;;;;;;5028463;28;20210;-81
2022/03/11 13:17:53;;;;;;;4.80;3.93;;;;;;;;;;5028214;28;20265;-81
2022/03/11 13:20:33;;;;;;;5.13;3.90;;;;;;;;;;5028969;28;20600;-81
2022/03/11 13:23:03;;;;;;;5.07;4.00;;;;;;;;;;5028446;28;20249;-81
2022/03/11 13:25:31;;;;;;;27.77;15.47;;;;;;;;;;5028429;28;20199;-82
2022/03/11 13:27:59;;;;;;;18.97;10.67;;;;;;;;;;5028408;28;20210;-81
2022/03/11 13:30:35;;;;;;;10.03;6.47;;;;;;;;;;5028682;28;20199;-81
2022/03/11 13:33:18;;;;;;;5.50;3.63;;;;;;;;;;5031536;27;20240;-81
2022/03/11 13:35:47;;;;;;;15.33;9.80;;;;;;;;;;5031870;28;20566;-81
2022/03/11 13:38:38;;;;;;;7.70;5.33;;;;;;;;;;5031524;28;20223;-81
2022/03/11 13:41:06;;;;;;;6.27;5.53;;;;;;;;;;5031751;28;20371;-81
2022/03/11 13:43:34;;;;;;;8.03;6.50;;;;;;;;;;5031377;28;20682;-81
2022/03/11 13:46:01;;;;;;;7.50;5.87;;;;;;;;;;5031628;28;20210;-81
2022/03/11 13:48:32;;;;;;;6.53;5.57;;;;;;;;;;5031844;28;20660;-81
2022/03/11 13:51:03;;;;;;;6.43;4.23;;;;;;;;;;5031604;28;20202;-81
2022/03/11 13:53:31;;;;;;;6.37;4.73;;;;;;;;;;5031214;28;20183;-80
2022/03/11 13:56:02;;;;;;;4.43;3.60;;;;;;;;;;5031836;28;20199;-81
2022/03/11 13:58:29;;;;;;;5.63;4.47;;;;;;;;;;5031247;28;20598;-82
2022/03/11 14:00:57;;;;;;;8.60;6.13;;;;;;;;;;5031620;28;20222;-80
2022/03/11 14:03:25;;;;;;;8.67;6.47;;;;;;;;;;5031324;28;20577;-81
2022/03/11 14:05:54;;;;;;;5.37;4.93;;;;;;;;;;5031674;28;20194;-80
2022/03/11 14:08:26;;;;;;;4.03;3.67;;;;;;;;;;5031158;28;20247;-81
2022/03/11 14:10:55;;;;;;;4.27;3.87;;;;;;;;;;5031574;28;20590;-81
2022/03/11 14:13:27;;;;;;;4.60;4.13;;;;;;;;;;5030918;28;20210;-80
2022/03/11 14:15:54;;;;;;;3.57;3.27;;;;;;;;;;5031277;28;20191;-80
2022/03/11 14:18:25;;;;;;;4.83;3.60;;;;;;;;;;5030806;28;20321;-80
2022/03/11 14:20:53;;;;;;;6.40;4.63;;;;;;;;;;5031527;28;20264;-80
2022/03/11 14:23:20;;;;;;;6.70;4.80;;;;;;;;;;5030806;28;20683;-80
2022/03/11 14:25:49;;;;;;;5.57;4.37;;;;;;;;;;5031123;28;20199;-81
2022/03/11 14:28:18;;;;;;;5.07;3.37;;;;;;;;;;5030844;28;20207;-80
2022/03/11 14:30:45;;;;;;;3.80;3.40;;;;;;;;;;5030845;28;20230;-80
2022/03/11 14:33:13;;;;;;;3.73;3.33;;;;;;;;;;5031053;28;20210;-80
2022/03/11 14:35:40;;;;;;;7.57;4.40;;;;;;;;;;5031405;28;20532;-80
2022/03/11 14:38:07;;;;;;;6.07;4.43;;;;;;;;;;5030694;28;20230;-80
2022/03/11 14:40:35;;;;;;;4.00;3.10;;;;;;;;;;5031258;28;20216;-80
2022/03/11 14:43:04;;;;;;;3.83;3.50;;;;;;;;;;5029282;28;20289;-81
2022/03/11 14:45:32;;;;;;;7.83;4.43;;;;;;;;;;5030820;28;20199;-81
2022/03/11 14:47:59;;;;;;;4.80;4.40;;;;;;;;;;5030873;28;20579;-80
2022/03/11 14:50:26;;;;;;;6.10;5.37;;;;;;;;;;5031204;28;20199;-81